Cecil, Arkansas
Current Conditions -  °F | °C
As of 12:53 PM on Thursday 23 Oct 2014 (Local Time) from KFSM Reporting Station
Clear Clear  
Wind Chill: 67°   Ceiling: Unl
Heat Index: 67°   Visibility: 10mi
Dew Point: 49°   Wind: 7mph
Humidity: 52%   Direction: 80°E
Pressure: 30.18"   Gusts: NA
Location:  35.44°N, 93.95°W
Report Text: KFSM 231753Z 08006KT 10SM CLR 19/09 A3018 RMK AO2 SLP216 T01940094 10194 20122 58008
Loading
Personal Weather Stations






























Interactive Weather Map
Tropical Storm Tracking
New forecast layout! Learn more

10-Day Weather Forecast

Advertisements
Track Severe Weather on mobile